Time;durP1;ratioP1;P1;durP2;ratioP2;P2;SDS_P1;SDS_P2;PMS_P1;PMS_P2;Temp;Humidity;BMP_temperature;BMP_pressure;BME280_temperature;BME280_humidity;BME280_pressure;Samples;Min_cycle;Max_cycle;Signal;HPM_P1;HPM_P2
2022/10/26 00:00:29;;;;;;;9.32;5.07;;;;;;;;;;4965891;28;20031;-73
2022/10/26 00:02:56;;;;;;;9.35;5.63;;;;;;;;;;4968480;28;20110;-74
2022/10/26 00:05:22;;;;;;;7.57;4.95;;;;;;;;;;4969369;28;20101;-75
2022/10/26 00:07:49;;;;;;;6.32;5.07;;;;;;;;;;4966837;28;20081;-74
2022/10/26 00:10:15;;;;;;;6.82;4.82;;;;;;;;;;4965823;28;20494;-74
2022/10/26 00:12:41;;;;;;;8.52;5.60;;;;;;;;;;4970011;28;20026;-74
2022/10/26 00:15:08;;;;;;;9.35;5.40;;;;;;;;;;4970020;28;21203;-75
2022/10/26 00:17:34;;;;;;;7.88;4.60;;;;;;;;;;4965750;28;20027;-75
2022/10/26 00:20:01;;;;;;;8.00;4.47;;;;;;;;;;4968687;28;20175;-75
2022/10/26 00:22:27;;;;;;;6.55;4.15;;;;;;;;;;4971154;28;20045;-75
2022/10/26 00:24:54;;;;;;;4.93;3.90;;;;;;;;;;4971841;28;20035;-74
2022/10/26 00:27:20;;;;;;;8.65;4.50;;;;;;;;;;4973684;28;20031;-75
2022/10/26 00:29:46;;;;;;;8.80;4.15;;;;;;;;;;4968038;28;20038;-75
2022/10/26 00:32:12;;;;;;;8.20;4.25;;;;;;;;;;4970748;28;20029;-74
2022/10/26 00:34:38;;;;;;;7.50;4.60;;;;;;;;;;4971351;28;20030;-75
2022/10/26 00:37:04;;;;;;;7.18;4.38;;;;;;;;;;4967060;28;20035;-75
2022/10/26 00:39:30;;;;;;;6.32;4.38;;;;;;;;;;4968336;28;20034;-74
2022/10/26 00:41:56;;;;;;;10.63;4.90;;;;;;;;;;4967138;28;20026;-75
2022/10/26 00:44:41;;;;;;;8.23;4.88;;;;;;;;;;4970748;28;20113;-75
2022/10/26 00:47:09;;;;;;;10.25;5.22;;;;;;;;;;4971315;28;20518;-75
2022/10/26 00:49:35;;;;;;;7.93;5.18;;;;;;;;;;4965591;28;20042;-74
2022/10/26 00:52:01;;;;;;;7.68;5.30;;;;;;;;;;4963823;28;20055;-75
2022/10/26 00:54:28;;;;;;;11.00;5.28;;;;;;;;;;4971405;28;20026;-75
2022/10/26 00:56:54;;;;;;;14.75;5.47;;;;;;;;;;4969422;28;20042;-75
2022/10/26 00:59:21;;;;;;;9.55;5.18;;;;;;;;;;4969132;28;20030;-75
2022/10/26 01:01:48;;;;;;;8.95;5.00;;;;;;;;;;4965664;28;20031;-75
2022/10/26 01:04:14;;;;;;;8.23;4.93;;;;;;;;;;4966083;28;20030;-75
2022/10/26 01:06:41;;;;;;;7.22;4.78;;;;;;;;;;4960539;28;20039;-75
2022/10/26 01:09:07;;;;;;;6.38;4.45;;;;;;;;;;4964948;28;20038;-75
2022/10/26 01:11:33;;;;;;;11.13;4.65;;;;;;;;;;4969477;28;20023;-74
2022/10/26 01:14:00;;;;;;;8.40;5.07;;;;;;;;;;4969411;28;20027;-74
2022/10/26 01:16:29;;;;;;;7.03;4.57;;;;;;;;;;4962347;28;20031;-75
2022/10/26 01:19:12;;;;;;;6.90;4.50;;;;;;;;;;4970257;28;20053;-75
2022/10/26 01:21:56;;;;;;;5.97;3.92;;;;;;;;;;4970394;28;20042;-75
2022/10/26 01:24:25;;;;;;;5.18;3.67;;;;;;;;;;4965506;28;20034;-74
2022/10/26 01:27:27;;;;;;;5.45;3.80;;;;;;;;;;4967916;28;20101;-74
2022/10/26 01:30:11;;;;;;;8.25;3.42;;;;;;;;;;4935985;29;20449;-75
2022/10/26 01:32:44;;;;;;;5.55;3.63;;;;;;;;;;4936155;29;20036;-75
2022/10/26 01:35:13;;;;;;;5.90;3.72;;;;;;;;;;4935947;29;20042;-74
2022/10/26 01:37:43;;;;;;;5.18;3.53;;;;;;;;;;4934710;28;20586;-74
2022/10/26 01:40:13;;;;;;;5.88;3.50;;;;;;;;;;4935652;29;20082;-74
2022/10/26 01:42:44;;;;;;;5.95;3.60;;;;;;;;;;4933256;29;20385;-74
2022/10/26 01:45:12;;;;;;;5.32;3.70;;;;;;;;;;4938747;29;20044;-74
2022/10/26 01:47:38;;;;;;;6.53;3.80;;;;;;;;;;4930535;29;20500;-73
2022/10/26 01:50:06;;;;;;;7.78;3.70;;;;;;;;;;4931127;29;20060;-75
2022/10/26 01:52:33;;;;;;;6.20;3.30;;;;;;;;;;4926392;29;20565;-75
2022/10/26 01:55:03;;;;;;;4.50;2.90;;;;;;;;;;4944986;29;20090;-74
2022/10/26 01:57:32;;;;;;;3.45;2.00;;;;;;;;;;4933265;29;20067;-74
2022/10/26 02:00:12;;;;;;;3.05;2.22;;;;;;;;;;4935878;29;20032;-73
2022/10/26 02:02:47;;;;;;;4.18;2.50;;;;;;;;;;4929820;29;20111;-75
2022/10/26 02:05:28;;;;;;;4.53;2.00;;;;;;;;;;4967351;28;20023;-74
2022/10/26 02:07:54;;;;;;;4.63;2.40;;;;;;;;;;4965526;28;20031;-75
2022/10/26 02:10:40;;;;;;;4.47;1.98;;;;;;;;;;4968040;28;20722;-75
2022/10/26 02:13:09;;;;;;;3.30;2.15;;;;;;;;;;4960075;28;20027;-75
2022/10/26 02:15:52;;;;;;;2.78;2.22;;;;;;;;;;4968375;28;20101;-75
2022/10/26 02:18:18;;;;;;;3.03;2.00;;;;;;;;;;4969428;28;20026;-75
2022/10/26 02:20:48;;;;;;;2.20;2.00;;;;;;;;;;4968085;28;20057;-75
2022/10/26 02:23:14;;;;;;;2.70;2.00;;;;;;;;;;4969982;28;20110;-75
2022/10/26 02:25:45;;;;;;;2.00;1.90;;;;;;;;;;4970291;28;20031;-75
2022/10/26 02:28:17;;;;;;;3.22;2.08;;;;;;;;;;4970448;28;20062;-74
2022/10/26 02:30:44;;;;;;;3.63;2.40;;;;;;;;;;4968624;28;20031;-73
2022/10/26 02:33:11;;;;;;;3.78;2.38;;;;;;;;;;4970185;28;20023;-74
2022/10/26 02:35:40;;;;;;;2.47;2.28;;;;;;;;;;4983778;28;20027;-74
2022/10/26 02:38:08;;;;;;;3.25;2.50;;;;;;;;;;4967184;28;20050;-75
2022/10/26 02:40:34;;;;;;;3.30;2.65;;;;;;;;;;4971528;28;20034;-74
2022/10/26 02:43:04;;;;;;;4.03;2.50;;;;;;;;;;4970718;28;20102;-74
2022/10/26 02:45:36;;;;;;;3.00;2.40;;;;;;;;;;4974365;28;20062;-75
2022/10/26 02:48:02;;;;;;;5.45;2.60;;;;;;;;;;4972343;28;20069;-75
2022/10/26 02:50:54;;;;;;;3.10;2.20;;;;;;;;;;4968675;28;20043;-75
2022/10/26 02:53:35;;;;;;;2.63;2.15;;;;;;;;;;4956174;28;20051;-75
2022/10/26 02:56:04;;;;;;;3.92;2.40;;;;;;;;;;4971125;28;20100;-75
2022/10/26 02:58:33;;;;;;;3.35;2.15;;;;;;;;;;4970829;28;20045;-74
2022/10/26 03:00:59;;;;;;;3.03;2.20;;;;;;;;;;4967958;28;20035;-74
2022/10/26 03:03:25;;;;;;;3.40;2.03;;;;;;;;;;4970812;28;20022;-74
2022/10/26 03:05:51;;;;;;;2.42;2.08;;;;;;;;;;4969113;28;20609;-75
2022/10/26 03:08:17;;;;;;;4.78;2.03;;;;;;;;;;4965977;28;20050;-75
2022/10/26 03:10:44;;;;;;;3.20;1.90;;;;;;;;;;4972709;28;20038;-74
2022/10/26 03:13:11;;;;;;;3.95;1.95;;;;;;;;;;4966519;28;20109;-75
2022/10/26 03:15:38;;;;;;;5.97;2.15;;;;;;;;;;4965990;28;20085;-75
2022/10/26 03:18:04;;;;;;;3.35;1.90;;;;;;;;;;4967855;28;20035;-75
2022/10/26 03:20:30;;;;;;;3.55;2.00;;;;;;;;;;4969047;28;20030;-74
2022/10/26 03:22:56;;;;;;;2.67;1.80;;;;;;;;;;4966026;28;20027;-74
2022/10/26 03:25:23;;;;;;;2.67;2.05;;;;;;;;;;4972070;28;20030;-75
2022/10/26 03:28:09;;;;;;;2.88;1.95;;;;;;;;;;4972721;28;20376;-74
2022/10/26 03:30:35;;;;;;;2.92;1.95;;;;;;;;;;4966060;28;20420;-75
2022/10/26 03:33:01;;;;;;;1.95;1.83;;;;;;;;;;4968970;28;20157;-74
2022/10/26 03:35:27;;;;;;;4.25;1.92;;;;;;;;;;4968075;28;20027;-74
2022/10/26 03:37:53;;;;;;;4.03;2.38;;;;;;;;;;4967955;28;20029;-75
2022/10/26 03:40:19;;;;;;;3.60;2.20;;;;;;;;;;4972351;28;20026;-75
2022/10/26 03:42:45;;;;;;;4.05;2.10;;;;;;;;;;4972622;28;20145;-75
2022/10/26 03:45:12;;;;;;;3.03;2.03;;;;;;;;;;4970397;28;20073;-75
2022/10/26 03:47:44;;;;;;;3.00;2.30;;;;;;;;;;4960167;28;20027;-75
2022/10/26 03:50:11;;;;;;;3.58;2.22;;;;;;;;;;4972166;28;20058;-75
2022/10/26 03:52:37;;;;;;;3.85;2.47;;;;;;;;;;4964390;28;20039;-75
2022/10/26 03:55:03;;;;;;;4.97;3.25;;;;;;;;;;4971185;28;20089;-74
2022/10/26 03:57:29;;;;;;;6.60;3.30;;;;;;;;;;4969676;28;20033;-72
2022/10/26 03:59:56;;;;;;;3.55;2.83;;;;;;;;;;4967824;28;20069;-74
2022/10/26 04:02:22;;;;;;;4.32;2.85;;;;;;;;;;4969623;28;20030;-75
2022/10/26 04:04:48;;;;;;;4.30;2.47;;;;;;;;;;4965751;28;20098;-75
2022/10/26 04:07:14;;;;;;;3.10;2.70;;;;;;;;;;4968375;28;20614;-75
2022/10/26 04:09:40;;;;;;;4.38;2.70;;;;;;;;;;4970191;28;20043;-73
2022/10/26 04:12:06;;;;;;;9.38;2.80;;;;;;;;;;4970821;28;21500;-73
2022/10/26 04:14:32;;;;;;;10.57;2.67;;;;;;;;;;4970267;28;20019;-75
2022/10/26 04:16:58;;;;;;;7.20;2.30;;;;;;;;;;4969523;28;20034;-74
2022/10/26 04:19:24;;;;;;;7.07;2.50;;;;;;;;;;4967726;28;20034;-74
2022/10/26 04:21:51;;;;;;;4.15;2.55;;;;;;;;;;4966479;28;20043;-74
2022/10/26 04:24:17;;;;;;;5.15;2.67;;;;;;;;;;4968624;28;20089;-74
2022/10/26 04:26:44;;;;;;;5.25;2.53;;;;;;;;;;4965634;28;20231;-74
2022/10/26 04:29:12;;;;;;;3.75;2.45;;;;;;;;;;4966822;28;20396;-74
2022/10/26 04:31:38;;;;;;;4.18;2.65;;;;;;;;;;4970639;28;20019;-74
2022/10/26 04:34:04;;;;;;;7.18;2.60;;;;;;;;;;4966141;28;20123;-74
2022/10/26 04:36:30;;;;;;;6.30;2.60;;;;;;;;;;4968515;28;20035;-74
2022/10/26 04:38:56;;;;;;;6.25;2.55;;;;;;;;;;4971262;28;20106;-74
2022/10/26 04:41:22;;;;;;;3.38;2.60;;;;;;;;;;4969856;28;20030;-75
2022/10/26 04:43:48;;;;;;;6.10;2.80;;;;;;;;;;4968345;28;20038;-75
2022/10/26 04:46:15;;;;;;;5.45;2.63;;;;;;;;;;4976520;28;20105;-76
2022/10/26 04:48:41;;;;;;;5.88;2.75;;;;;;;;;;4964349;28;20031;-74
2022/10/26 04:51:10;;;;;;;5.38;2.92;;;;;;;;;;4968070;28;20055;-72
2022/10/26 04:53:36;;;;;;;6.88;2.97;;;;;;;;;;4969702;28;20101;-74
2022/10/26 04:56:02;;;;;;;6.60;3.25;;;;;;;;;;4969999;28;20035;-75
2022/10/26 04:58:28;;;;;;;7.63;2.85;;;;;;;;;;4968075;28;20026;-76
2022/10/26 05:00:54;;;;;;;6.57;3.10;;;;;;;;;;4969681;28;20096;-73
2022/10/26 05:03:21;;;;;;;6.82;2.92;;;;;;;;;;4968397;28;20440;-75
2022/10/26 05:05:47;;;;;;;7.53;3.10;;;;;;;;;;4966479;28;20089;-75
2022/10/26 05:08:13;;;;;;;4.43;2.92;;;;;;;;;;4969955;28;20030;-76
2022/10/26 05:10:39;;;;;;;7.18;2.80;;;;;;;;;;4969448;28;20031;-75
2022/10/26 05:13:05;;;;;;;9.02;3.00;;;;;;;;;;4967253;28;20027;-74
2022/10/26 05:15:32;;;;;;;6.03;2.80;;;;;;;;;;4969698;28;20031;-73
2022/10/26 05:17:59;;;;;;;6.78;3.10;;;;;;;;;;4966502;28;20027;-74
2022/10/26 05:20:29;;;;;;;85.57;6.25;;;;;;;;;;4967579;28;20027;-73
2022/10/26 05:23:00;;;;;;;13.82;3.40;;;;;;;;;;4971821;28;20034;-74
2022/10/26 05:25:27;;;;;;;11.23;3.42;;;;;;;;;;4966776;28;20135;-74
2022/10/26 05:28:03;;;;;;;9.85;3.40;;;;;;;;;;4968803;28;20110;-72
2022/10/26 05:30:30;;;;;;;7.32;3.53;;;;;;;;;;4968594;28;20181;-75
2022/10/26 05:32:56;;;;;;;9.50;4.18;;;;;;;;;;4970991;28;20027;-74
2022/10/26 05:35:23;;;;;;;13.40;3.95;;;;;;;;;;4966487;28;20062;-74
2022/10/26 05:37:49;;;;;;;13.85;3.67;;;;;;;;;;4969254;28;20027;-74
2022/10/26 05:40:18;;;;;;;13.05;3.55;;;;;;;;;;4963868;28;20034;-73
2022/10/26 05:42:44;;;;;;;7.38;3.17;;;;;;;;;;4966294;28;20105;-73
2022/10/26 05:45:10;;;;;;;9.98;2.92;;;;;;;;;;4963496;28;20138;-74
2022/10/26 05:47:43;;;;;;;16.17;8.65;;;;;;;;;;4964885;28;20028;-74
2022/10/26 05:50:10;;;;;;;14.77;9.90;;;;;;;;;;4968015;28;20062;-74
2022/10/26 05:52:39;;;;;;;11.88;6.82;;;;;;;;;;4968290;28;20085;-73
2022/10/26 05:55:06;;;;;;;9.93;6.82;;;;;;;;;;4964303;28;20457;-74
2022/10/26 05:57:32;;;;;;;14.88;5.78;;;;;;;;;;4965005;28;20034;-73
2022/10/26 05:59:59;;;;;;;19.70;5.47;;;;;;;;;;4969992;28;20088;-74
2022/10/26 06:02:33;;;;;;;12.85;4.38;;;;;;;;;;4968623;28;20125;-73
2022/10/26 06:05:02;;;;;;;13.73;4.05;;;;;;;;;;4969198;28;20035;-73
2022/10/26 06:07:29;;;;;;;11.00;4.97;;;;;;;;;;4967259;28;20027;-73
2022/10/26 06:09:55;;;;;;;14.50;4.53;;;;;;;;;;4965682;28;20039;-74
2022/10/26 06:12:21;;;;;;;9.95;4.65;;;;;;;;;;4967260;28;20037;-74
2022/10/26 06:14:47;;;;;;;15.73;4.63;;;;;;;;;;4972255;28;20472;-74
2022/10/26 06:17:16;;;;;;;11.60;4.20;;;;;;;;;;4986601;28;20024;-74
2022/10/26 06:19:51;;;;;;;11.10;3.83;;;;;;;;;;4972611;28;20078;-74
2022/10/26 06:22:17;;;;;;;17.65;4.45;;;;;;;;;;4968386;28;20496;-74
2022/10/26 06:24:48;;;;;;;13.30;4.13;;;;;;;;;;4965589;28;20094;-74
2022/10/26 06:27:32;;;;;;;10.43;3.97;;;;;;;;;;4970758;28;20031;-74
2022/10/26 06:29:58;;;;;;;9.50;3.80;;;;;;;;;;4970356;28;20042;-74
2022/10/26 06:32:24;;;;;;;13.18;3.97;;;;;;;;;;4974138;28;20037;-74
2022/10/26 06:34:52;;;;;;;18.30;4.38;;;;;;;;;;4985574;28;20082;-75
2022/10/26 06:37:19;;;;;;;13.57;4.70;;;;;;;;;;4971913;28;20362;-74
2022/10/26 06:39:46;;;;;;;9.40;4.60;;;;;;;;;;4973622;28;20530;-73
2022/10/26 06:42:12;;;;;;;13.27;4.20;;;;;;;;;;4959328;28;20027;-73
2022/10/26 06:44:39;;;;;;;11.40;4.05;;;;;;;;;;4969852;28;20049;-74
2022/10/26 06:47:30;;;;;;;12.07;3.47;;;;;;;;;;4972154;28;20031;-75
2022/10/26 06:50:11;;;;;;;6.28;3.40;;;;;;;;;;4973891;28;20098;-75
2022/10/26 06:52:46;;;;;;;9.45;3.10;;;;;;;;;;4970900;28;20400;-74
2022/10/26 06:55:15;;;;;;;7.25;3.53;;;;;;;;;;4973019;28;20099;-75
2022/10/26 06:57:42;;;;;;;7.32;3.45;;;;;;;;;;4970317;28;20390;-74
2022/10/26 07:00:23;;;;;;;11.60;3.47;;;;;;;;;;4969556;28;20031;-75
2022/10/26 07:02:50;;;;;;;12.38;4.07;;;;;;;;;;4970822;28;20027;-74
2022/10/26 07:05:16;;;;;;;9.18;3.90;;;;;;;;;;4969964;28;20499;-74
2022/10/26 07:07:43;;;;;;;8.20;4.05;;;;;;;;;;4971130;28;20035;-75
2022/10/26 07:10:10;;;;;;;11.40;4.80;;;;;;;;;;4970816;28;20047;-75
2022/10/26 07:12:36;;;;;;;7.68;4.38;;;;;;;;;;4971315;28;20034;-75
2022/10/26 07:15:03;;;;;;;10.88;3.90;;;;;;;;;;4972047;28;20031;-75
2022/10/26 07:17:29;;;;;;;16.05;5.70;;;;;;;;;;4970404;28;20019;-74
2022/10/26 07:19:55;;;;;;;6.68;3.63;;;;;;;;;;4966027;28;20052;-74
2022/10/26 07:22:22;;;;;;;8.38;4.00;;;;;;;;;;4968742;28;20030;-75
2022/10/26 07:24:50;;;;;;;5.68;3.72;;;;;;;;;;4968582;28;20031;-75
2022/10/26 07:27:18;;;;;;;8.02;3.78;;;;;;;;;;4971935;28;20373;-74
2022/10/26 07:29:44;;;;;;;10.50;4.10;;;;;;;;;;4965364;28;20034;-75
2022/10/26 07:32:10;;;;;;;6.30;3.80;;;;;;;;;;4966323;28;20031;-74
2022/10/26 07:34:36;;;;;;;8.02;4.50;;;;;;;;;;4968067;28;20034;-74
2022/10/26 07:37:03;;;;;;;5.07;4.40;;;;;;;;;;4972874;28;20432;-74
2022/10/26 07:39:31;;;;;;;5.50;4.60;;;;;;;;;;4970300;28;20031;-74
2022/10/26 07:41:57;;;;;;;6.70;4.68;;;;;;;;;;4965326;28;20453;-75
2022/10/26 07:44:23;;;;;;;8.30;5.38;;;;;;;;;;4963506;28;21720;-74
2022/10/26 07:46:49;;;;;;;10.45;5.72;;;;;;;;;;4968536;28;20027;-74
2022/10/26 07:49:15;;;;;;;8.82;5.70;;;;;;;;;;4971355;28;20035;-73
2022/10/26 07:51:41;;;;;;;9.15;5.53;;;;;;;;;;4968518;28;20046;-74
2022/10/26 07:54:08;;;;;;;6.88;5.25;;;;;;;;;;4972158;28;20023;-73
2022/10/26 07:56:34;;;;;;;8.35;4.90;;;;;;;;;;4967992;28;20481;-73
2022/10/26 07:59:00;;;;;;;6.20;5.00;;;;;;;;;;4968951;28;20022;-74
2022/10/26 08:01:26;;;;;;;8.85;4.80;;;;;;;;;;4966137;28;20105;-74
2022/10/26 08:03:53;;;;;;;7.93;4.63;;;;;;;;;;4973873;28;20027;-74
2022/10/26 08:06:19;;;;;;;6.30;4.63;;;;;;;;;;4966437;28;20518;-74
2022/10/26 08:08:46;;;;;;;7.13;4.50;;;;;;;;;;4970296;28;20130;-74
2022/10/26 08:11:12;;;;;;;52.42;40.63;;;;;;;;;;4967536;28;20066;-75
2022/10/26 08:13:38;;;;;;;11.70;5.45;;;;;;;;;;4966062;28;20456;-73
2022/10/26 08:16:05;;;;;;;8.32;3.80;;;;;;;;;;4968696;28;20030;-73
2022/10/26 08:18:31;;;;;;;10.48;4.45;;;;;;;;;;4966524;28;20019;-73
2022/10/26 08:21:02;;;;;;;11.18;4.50;;;;;;;;;;4964175;28;20097;-73
2022/10/26 08:23:28;;;;;;;10.13;3.88;;;;;;;;;;4949029;28;20036;-73
2022/10/26 08:26:01;;;;;;;8.75;4.03;;;;;;;;;;4970455;28;20019;-75
2022/10/26 08:28:28;;;;;;;9.63;4.63;;;;;;;;;;4971055;28;20531;-73
2022/10/26 08:30:54;;;;;;;6.72;4.07;;;;;;;;;;4961970;28;20041;-74
2022/10/26 08:33:21;;;;;;;6.70;4.47;;;;;;;;;;4967985;28;20027;-71
2022/10/26 08:35:47;;;;;;;6.82;3.72;;;;;;;;;;4966737;28;20024;-73
2022/10/26 08:38:13;;;;;;;7.22;3.95;;;;;;;;;;4967330;28;20170;-74
2022/10/26 08:40:40;;;;;;;6.80;3.25;;;;;;;;;;4966472;28;20023;-73
2022/10/26 08:43:15;;;;;;;7.47;3.13;;;;;;;;;;4967123;28;20046;-73
2022/10/26 08:45:44;;;;;;;5.03;2.90;;;;;;;;;;4963737;28;20020;-74
2022/10/26 08:48:13;;;;;;;7.30;2.92;;;;;;;;;;4970408;28;20034;-73
2022/10/26 08:50:41;;;;;;;5.07;3.05;;;;;;;;;;4966688;28;20151;-73
2022/10/26 08:53:07;;;;;;;5.28;3.10;;;;;;;;;;4968054;28;20042;-72
2022/10/26 08:55:42;;;;;;;7.03;3.60;;;;;;;;;;4969148;28;20027;-74
2022/10/26 08:58:14;;;;;;;7.13;3.35;;;;;;;;;;4951240;28;20038;-73
2022/10/26 09:00:40;;;;;;;10.63;3.22;;;;;;;;;;4966793;28;20033;-74
2022/10/26 09:03:16;;;;;;;5.72;3.47;;;;;;;;;;4971057;28;20562;-73
2022/10/26 09:06:01;;;;;;;7.57;3.15;;;;;;;;;;4967417;28;20396;-73
2022/10/26 09:08:27;;;;;;;6.47;3.10;;;;;;;;;;4966068;28;20493;-73
2022/10/26 09:10:58;;;;;;;5.97;3.28;;;;;;;;;;4954158;28;20522;-73
2022/10/26 09:13:39;;;;;;;5.85;3.17;;;;;;;;;;4973828;28;20034;-73
2022/10/26 09:16:15;;;;;;;6.40;3.28;;;;;;;;;;4967967;28;20179;-74
2022/10/26 09:19:12;;;;;;;6.20;3.30;;;;;;;;;;4966666;28;20061;-73
2022/10/26 09:21:50;;;;;;;7.72;3.85;;;;;;;;;;4967424;28;20137;-73
2022/10/26 09:24:28;;;;;;;7.88;3.30;;;;;;;;;;4968758;28;20019;-73
2022/10/26 09:26:55;;;;;;;10.80;3.50;;;;;;;;;;4970183;28;20018;-73
2022/10/26 09:29:24;;;;;;;6.82;3.83;;;;;;;;;;4965205;28;20061;-73
2022/10/26 09:31:51;;;;;;;6.25;2.60;;;;;;;;;;4967446;28;20018;-73
2022/10/26 09:34:20;;;;;;;3.88;2.05;;;;;;;;;;4965001;28;20055;-73
2022/10/26 09:36:46;;;;;;;6.00;2.97;;;;;;;;;;4966797;28;20027;-73
2022/10/26 09:39:21;;;;;;;6.65;2.15;;;;;;;;;;4963950;28;20115;-73
2022/10/26 09:41:51;;;;;;;7.00;2.40;;;;;;;;;;4965450;28;20031;-73
2022/10/26 09:44:17;;;;;;;9.52;3.65;;;;;;;;;;4962886;28;20492;-72
2022/10/26 09:46:52;;;;;;;5.03;2.50;;;;;;;;;;4967675;28;20472;-72
2022/10/26 09:49:20;;;;;;;6.50;3.45;;;;;;;;;;4972280;28;20596;-72
2022/10/26 09:51:47;;;;;;;5.28;2.60;;;;;;;;;;4953889;28;20054;-72
2022/10/26 09:54:17;;;;;;;7.18;3.15;;;;;;;;;;4972571;28;20027;-74
2022/10/26 09:56:44;;;;;;;4.57;2.50;;;;;;;;;;4973607;28;20035;-73
2022/10/26 09:59:10;;;;;;;5.32;2.70;;;;;;;;;;4972098;28;20034;-73
2022/10/26 10:01:36;;;;;;;6.78;3.03;;;;;;;;;;4974504;28;20031;-73
2022/10/26 10:04:09;;;;;;;6.05;2.75;;;;;;;;;;4969220;28;20030;-74
2022/10/26 10:06:35;;;;;;;5.43;2.70;;;;;;;;;;4970914;28;20029;-73
2022/10/26 10:09:12;;;;;;;5.07;3.00;;;;;;;;;;4971885;28;20113;-72
2022/10/26 10:11:53;;;;;;;7.28;3.67;;;;;;;;;;4957962;28;20065;-73
2022/10/26 10:14:20;;;;;;;8.05;4.40;;;;;;;;;;4969623;28;20046;-73
2022/10/26 10:16:56;;;;;;;6.63;2.90;;;;;;;;;;4971914;28;20034;-72
2022/10/26 10:19:27;;;;;;;6.07;3.13;;;;;;;;;;4972144;28;20800;-73
2022/10/26 10:22:13;;;;;;;5.28;2.88;;;;;;;;;;4968330;28;20026;-74
2022/10/26 10:24:40;;;;;;;6.05;2.90;;;;;;;;;;4958749;28;20480;-73
2022/10/26 10:27:15;;;;;;;7.07;3.20;;;;;;;;;;4974018;28;20019;-73
2022/10/26 10:29:42;;;;;;;5.32;2.45;;;;;;;;;;4969358;28;20051;-73
2022/10/26 10:32:14;;;;;;;5.57;2.85;;;;;;;;;;4975334;28;20042;-73
2022/10/26 10:34:40;;;;;;;5.50;2.63;;;;;;;;;;4966444;28;20031;-73
2022/10/26 10:37:06;;;;;;;5.57;3.67;;;;;;;;;;4970153;28;20027;-73
2022/10/26 10:39:32;;;;;;;5.88;3.17;;;;;;;;;;4973441;28;20472;-74
2022/10/26 10:41:58;;;;;;;7.35;3.83;;;;;;;;;;4972439;28;20536;-73
2022/10/26 10:44:28;;;;;;;7.15;3.00;;;;;;;;;;4969944;28;20034;-73
2022/10/26 10:47:04;;;;;;;8.35;2.83;;;;;;;;;;4971371;28;20032;-72
2022/10/26 10:49:31;;;;;;;8.75;4.43;;;;;;;;;;4969419;28;20042;-73
2022/10/26 10:51:58;;;;;;;4.93;2.72;;;;;;;;;;4970732;28;20157;-72
2022/10/26 10:54:28;;;;;;;6.10;3.70;;;;;;;;;;4971120;28;20034;-72
2022/10/26 10:56:56;;;;;;;8.35;3.88;;;;;;;;;;4972327;28;20734;-73
2022/10/26 10:59:25;;;;;;;6.75;2.92;;;;;;;;;;4970553;28;20477;-72
2022/10/26 11:02:10;;;;;;;6.68;3.00;;;;;;;;;;4969132;28;20031;-73
2022/10/26 11:04:36;;;;;;;6.53;3.00;;;;;;;;;;4972747;28;20046;-72
2022/10/26 11:07:04;;;;;;;8.20;3.92;;;;;;;;;;4954571;28;20475;-73
2022/10/26 11:09:32;;;;;;;9.60;4.82;;;;;;;;;;4970612;28;20054;-72
2022/10/26 11:12:03;;;;;;;6.40;2.55;;;;;;;;;;4968145;28;20019;-73
2022/10/26 11:14:29;;;;;;;4.90;2.58;;;;;;;;;;4972787;28;20035;-72
2022/10/26 11:17:02;;;;;;;5.05;2.60;;;;;;;;;;4970766;28;20038;-72
2022/10/26 11:19:42;;;;;;;8.35;3.20;;;;;;;;;;4971421;28;20028;-73
2022/10/26 11:22:13;;;;;;;6.07;3.40;;;;;;;;;;4967760;28;20087;-73
2022/10/26 11:24:50;;;;;;;10.98;5.72;;;;;;;;;;4970957;28;20017;-73
2022/10/26 11:27:25;;;;;;;3.80;2.78;;;;;;;;;;4966814;28;20492;-73
2022/10/26 11:29:54;;;;;;;6.70;3.42;;;;;;;;;;4971484;28;20031;-74
2022/10/26 11:32:25;;;;;;;5.85;3.47;;;;;;;;;;4971773;28;20029;-74
2022/10/26 11:35:10;;;;;;;8.07;4.55;;;;;;;;;;4968683;28;21780;-74
2022/10/26 11:37:41;;;;;;;17.17;4.68;;;;;;;;;;4965562;28;20015;-74
2022/10/26 11:40:25;;;;;;;6.85;3.72;;;;;;;;;;4967494;28;20049;-73
2022/10/26 11:42:57;;;;;;;7.10;3.38;;;;;;;;;;4972640;28;20089;-73
2022/10/26 11:45:26;;;;;;;9.98;4.22;;;;;;;;;;4971432;28;20023;-74
2022/10/26 11:47:54;;;;;;;12.35;3.75;;;;;;;;;;4972016;28;20023;-74
2022/10/26 11:50:41;;;;;;;8.52;3.75;;;;;;;;;;4967967;28;20497;-74
2022/10/26 11:53:09;;;;;;;7.85;3.60;;;;;;;;;;4970618;28;20041;-72
2022/10/26 11:55:36;;;;;;;10.57;4.15;;;;;;;;;;4969558;28;20387;-74
2022/10/26 11:58:03;;;;;;;5.93;3.10;;;;;;;;;;4949984;28;20069;-73
2022/10/26 12:00:29;;;;;;;10.68;3.83;;;;;;;;;;4974037;28;20495;-73
2022/10/26 12:02:57;;;;;;;6.20;3.60;;;;;;;;;;4969402;28;20083;-73
2022/10/26 12:05:42;;;;;;;9.85;3.80;;;;;;;;;;4967853;28;20030;-72
2022/10/26 12:08:12;;;;;;;5.28;3.45;;;;;;;;;;4968738;28;20070;-73
2022/10/26 12:10:44;;;;;;;7.68;4.18;;;;;;;;;;4968758;28;20070;-72
2022/10/26 12:13:16;;;;;;;8.18;3.70;;;;;;;;;;4971938;28;20023;-73
2022/10/26 12:15:42;;;;;;;6.97;3.75;;;;;;;;;;4965211;28;20125;-73
2022/10/26 12:18:25;;;;;;;8.82;4.05;;;;;;;;;;4971455;28;20048;-72
2022/10/26 12:20:53;;;;;;;6.78;3.90;;;;;;;;;;4967042;28;20121;-72
2022/10/26 12:23:19;;;;;;;6.25;3.58;;;;;;;;;;4969237;28;20039;-73
2022/10/26 12:25:46;;;;;;;8.48;3.60;;;;;;;;;;4970472;28;20027;-73
2022/10/26 12:28:30;;;;;;;7.95;3.63;;;;;;;;;;4969528;28;20027;-73
2022/10/26 12:31:16;;;;;;;4.95;3.25;;;;;;;;;;4965401;28;20133;-73
2022/10/26 12:33:49;;;;;;;8.93;3.35;;;;;;;;;;4966183;28;20042;-73
2022/10/26 12:36:36;;;;;;;5.85;3.22;;;;;;;;;;4970611;28;20045;-73
2022/10/26 12:39:02;;;;;;;8.80;3.30;;;;;;;;;;4952888;28;20034;-73
2022/10/26 12:41:28;;;;;;;5.38;2.97;;;;;;;;;;4963347;28;20503;-72
2022/10/26 12:43:55;;;;;;;8.32;4.03;;;;;;;;;;4951865;28;20051;-73
2022/10/26 12:46:21;;;;;;;7.43;3.33;;;;;;;;;;4975560;28;20073;-72
2022/10/26 12:48:49;;;;;;;7.60;3.33;;;;;;;;;;4969234;28;20027;-73
2022/10/26 12:51:21;;;;;;;5.30;3.03;;;;;;;;;;4967823;28;20047;-72
2022/10/26 12:53:50;;;;;;;5.65;3.45;;;;;;;;;;4953158;28;20083;-72
2022/10/26 12:56:19;;;;;;;15.27;4.75;;;;;;;;;;4970250;28;20031;-73
2022/10/26 12:59:02;;;;;;;6.07;3.60;;;;;;;;;;4974914;28;20031;-73
2022/10/26 13:01:38;;;;;;;7.97;3.47;;;;;;;;;;4968657;28;20097;-73
2022/10/26 13:04:17;;;;;;;7.07;3.65;;;;;;;;;;4948643;28;20019;-76
2022/10/26 13:06:52;;;;;;;8.93;3.00;;;;;;;;;;4970313;28;20031;-72
2022/10/26 13:09:23;;;;;;;5.97;2.92;;;;;;;;;;4970115;28;20039;-72
2022/10/26 13:11:52;;;;;;;8.50;2.75;;;;;;;;;;4967157;28;20027;-72
2022/10/26 13:14:20;;;;;;;7.63;3.10;;;;;;;;;;4971800;28;20026;-72
2022/10/26 13:16:47;;;;;;;11.88;3.72;;;;;;;;;;4969178;28;20036;-72
2022/10/26 13:19:26;;;;;;;6.57;3.42;;;;;;;;;;4969460;28;20397;-72
2022/10/26 13:21:53;;;;;;;9.88;3.67;;;;;;;;;;4967620;28;20037;-73
2022/10/26 13:24:21;;;;;;;9.60;4.32;;;;;;;;;;4963031;28;20035;-72
2022/10/26 13:27:10;;;;;;;16.67;4.88;;;;;;;;;;4969414;28;20473;-71
2022/10/26 13:29:55;;;;;;;13.05;4.75;;;;;;;;;;4910444;29;20513;-72
2022/10/26 13:32:21;;;;;;;6.25;3.40;;;;;;;;;;4909624;29;20565;-72
2022/10/26 13:34:47;;;;;;;8.88;3.83;;;;;;;;;;4906025;29;20134;-72
2022/10/26 13:37:16;;;;;;;8.43;3.33;;;;;;;;;;4892803;29;20033;-73
2022/10/26 13:39:43;;;;;;;11.27;3.50;;;;;;;;;;4906170;29;20509;-73
2022/10/26 13:42:14;;;;;;;15.95;3.40;;;;;;;;;;4901934;29;20040;-73
2022/10/26 13:44:44;;;;;;;10.73;3.90;;;;;;;;;;4903164;29;20046;-74
2022/10/26 13:47:25;;;;;;;12.60;4.05;;;;;;;;;;4905298;29;20064;-73
2022/10/26 13:49:54;;;;;;;8.38;3.72;;;;;;;;;;4910045;29;20048;-73
2022/10/26 13:52:27;;;;;;;16.13;3.40;;;;;;;;;;4926197;29;20114;-73
2022/10/26 13:54:58;;;;;;;8.18;3.30;;;;;;;;;;4923516;29;20040;-71
2022/10/26 13:57:43;;;;;;;7.35;3.50;;;;;;;;;;4923085;29;20082;-72
2022/10/26 14:00:17;;;;;;;13.75;4.10;;;;;;;;;;4929234;29;20047;-73
2022/10/26 14:02:43;;;;;;;7.25;3.80;;;;;;;;;;4923678;29;20020;-72
2022/10/26 14:05:12;;;;;;;9.60;3.55;;;;;;;;;;4927522;29;20035;-72
2022/10/26 14:07:44;;;;;;;8.10;4.10;;;;;;;;;;4965878;28;20066;-73
2022/10/26 14:10:23;;;;;;;11.57;4.60;;;;;;;;;;4971334;28;20054;-73
2022/10/26 14:12:50;;;;;;;9.20;4.60;;;;;;;;;;4968343;28;20024;-73
2022/10/26 14:15:18;;;;;;;11.65;4.68;;;;;;;;;;4970526;28;20115;-72
2022/10/26 14:17:49;;;;;;;13.95;4.78;;;;;;;;;;4967297;28;20453;-73
2022/10/26 14:20:19;;;;;;;15.98;5.22;;;;;;;;;;4965691;28;20062;-73
2022/10/26 14:22:45;;;;;;;9.63;4.75;;;;;;;;;;4971612;28;20027;-72
2022/10/26 14:25:38;;;;;;;12.60;4.82;;;;;;;;;;4969093;28;20034;-72
2022/10/26 14:28:19;;;;;;;12.93;4.82;;;;;;;;;;4965144;28;20062;-72
2022/10/26 14:30:45;;;;;;;15.55;4.85;;;;;;;;;;4966888;28;20377;-73
2022/10/26 14:33:19;;;;;;;25.23;5.10;;;;;;;;;;4981658;28;20028;-72
2022/10/26 14:35:46;;;;;;;10.68;4.15;;;;;;;;;;4962064;28;20042;-73
2022/10/26 14:38:16;;;;;;;6.90;3.78;;;;;;;;;;4971289;28;20809;-72
2022/10/26 14:40:43;;;;;;;7.93;3.78;;;;;;;;;;4969194;28;20894;-72
2022/10/26 14:43:14;;;;;;;10.68;3.83;;;;;;;;;;4973117;28;20097;-73
2022/10/26 14:45:46;;;;;;;14.13;3.90;;;;;;;;;;4966151;28;20033;-73
2022/10/26 14:48:19;;;;;;;7.82;4.15;;;;;;;;;;4967704;28;20115;-73
2022/10/26 14:50:57;;;;;;;16.73;3.90;;;;;;;;;;4967133;28;20043;-76
2022/10/26 14:53:29;;;;;;;15.90;4.25;;;;;;;;;;4970660;28;20038;-73
2022/10/26 14:55:56;;;;;;;14.75;4.07;;;;;;;;;;4973996;28;20051;-74